sensor_id;sensor_type;location;lat;lon;timestamp;P1;P2;P0
69123;PMS5003;56232;53.384;-2.732;2023-11-18T00:01:46;15;15;
69123;PMS5003;56232;53.384;-2.732;2023-11-18T00:04:11;19;18;
69123;PMS5003;56232;53.384;-2.732;2023-11-18T00:06:37;14;14;
69123;PMS5003;56232;53.384;-2.732;2023-11-18T00:09:03;17;16;
69123;PMS5003;56232;53.384;-2.732;2023-11-18T00:11:28;14;13;
69123;PMS5003;56232;53.384;-2.732;2023-11-18T00:13:54;14;13;
69123;PMS5003;56232;53.384;-2.732;2023-11-18T00:16:20;17;14;
69123;PMS5003;56232;53.384;-2.732;2023-11-18T00:18:45;11;10;
69123;PMS5003;56232;53.384;-2.732;2023-11-18T00:21:11;11;11;
69123;PMS5003;56232;53.384;-2.732;2023-11-18T00:23:36;10;10;
69123;PMS5003;56232;53.384;-2.732;2023-11-18T00:26:02;9;9;
69123;PMS5003;56232;53.384;-2.732;2023-11-18T00:28:28;10;8;
69123;PMS5003;56232;53.384;-2.732;2023-11-18T00:30:53;9;9;
69123;PMS5003;56232;53.384;-2.732;2023-11-18T00:33:19;7;7;
69123;PMS5003;56232;53.384;-2.732;2023-11-18T00:35:45;6;6;
69123;PMS5003;56232;53.384;-2.732;2023-11-18T00:38:10;6;6;
69123;PMS5003;56232;53.384;-2.732;2023-11-18T00:40:36;7;6;
69123;PMS5003;56232;53.384;-2.732;2023-11-18T00:43:02;5;5;
69123;PMS5003;56232;53.384;-2.732;2023-11-18T00:45:28;5;5;
69123;PMS5003;56232;53.384;-2.732;2023-11-18T00:47:53;5;5;
69123;PMS5003;56232;53.384;-2.732;2023-11-18T00:50:19;6;6;
69123;PMS5003;56232;53.384;-2.732;2023-11-18T00:52:44;9;5;
69123;PMS5003;56232;53.384;-2.732;2023-11-18T00:55:10;6;5;
69123;PMS5003;56232;53.384;-2.732;2023-11-18T00:57:35;6;5;
69123;PMS5003;56232;53.384;-2.732;2023-11-18T01:00:01;4;3;
69123;PMS5003;56232;53.384;-2.732;2023-11-18T01:02:27;4;3;
69123;PMS5003;56232;53.384;-2.732;2023-11-18T01:04:53;5;4;
69123;PMS5003;56232;53.384;-2.732;2023-11-18T01:07:18;3;3;
69123;PMS5003;56232;53.384;-2.732;2023-11-18T01:09:44;4;4;
69123;PMS5003;56232;53.384;-2.732;2023-11-18T01:12:10;5;4;
69123;PMS5003;56232;53.384;-2.732;2023-11-18T01:14:36;4;4;
69123;PMS5003;56232;53.384;-2.732;2023-11-18T01:17:01;5;4;
69123;PMS5003;56232;53.384;-2.732;2023-11-18T01:19:27;4;3;
69123;PMS5003;56232;53.384;-2.732;2023-11-18T01:21:52;5;5;
69123;PMS5003;56232;53.384;-2.732;2023-11-18T01:24:18;6;5;
69123;PMS5003;56232;53.384;-2.732;2023-11-18T01:26:44;4;3;
69123;PMS5003;56232;53.384;-2.732;2023-11-18T01:29:10;5;4;
69123;PMS5003;56232;53.384;-2.732;2023-11-18T01:31:35;4;3;
69123;PMS5003;56232;53.384;-2.732;2023-11-18T01:34:01;4;3;
69123;PMS5003;56232;53.384;-2.732;2023-11-18T01:36:26;10;7;
69123;PMS5003;56232;53.384;-2.732;2023-11-18T01:38:51;6;5;
69123;PMS5003;56232;53.384;-2.732;2023-11-18T01:41:17;3;3;
69123;PMS5003;56232;53.384;-2.732;2023-11-18T01:43:45;4;4;
69123;PMS5003;56232;53.384;-2.732;2023-11-18T01:46:09;4;4;
69123;PMS5003;56232;53.384;-2.732;2023-11-18T01:48:34;5;4;
69123;PMS5003;56232;53.384;-2.732;2023-11-18T01:50:59;6;5;
69123;PMS5003;56232;53.384;-2.732;2023-11-18T01:53:25;5;5;
69123;PMS5003;56232;53.384;-2.732;2023-11-18T01:55:51;5;3;
69123;PMS5003;56232;53.384;-2.732;2023-11-18T01:58:16;5;5;
69123;PMS5003;56232;53.384;-2.732;2023-11-18T02:00:42;5;5;
69123;PMS5003;56232;53.384;-2.732;2023-11-18T02:03:08;5;4;
69123;PMS5003;56232;53.384;-2.732;2023-11-18T02:05:34;3;3;
69123;PMS5003;56232;53.384;-2.732;2023-11-18T02:08:00;5;5;
69123;PMS5003;56232;53.384;-2.732;2023-11-18T02:10:25;5;4;
69123;PMS5003;56232;53.384;-2.732;2023-11-18T02:12:53;4;4;
69123;PMS5003;56232;53.384;-2.732;2023-11-18T02:15:16;6;5;
69123;PMS5003;56232;53.384;-2.732;2023-11-18T02:17:42;6;6;
69123;PMS5003;56232;53.384;-2.732;2023-11-18T02:20:08;7;6;
69123;PMS5003;56232;53.384;-2.732;2023-11-18T02:22:33;5;5;
69123;PMS5003;56232;53.384;-2.732;2023-11-18T02:25:01;7;7;
69123;PMS5003;56232;53.384;-2.732;2023-11-18T02:27:24;7;7;
69123;PMS5003;56232;53.384;-2.732;2023-11-18T02:29:50;8;7;
69123;PMS5003;56232;53.384;-2.732;2023-11-18T02:32:17;9;9;
69123;PMS5003;56232;53.384;-2.732;2023-11-18T02:34:43;8;8;
69123;PMS5003;56232;53.384;-2.732;2023-11-18T02:37:07;14;11;
69123;PMS5003;56232;53.384;-2.732;2023-11-18T02:39:34;8;8;
69123;PMS5003;56232;53.384;-2.732;2023-11-18T02:41:58;12;12;
69123;PMS5003;56232;53.384;-2.732;2023-11-18T02:44:24;11;10;
69123;PMS5003;56232;53.384;-2.732;2023-11-18T02:46:50;13;13;
69123;PMS5003;56232;53.384;-2.732;2023-11-18T02:49:15;10;10;
69123;PMS5003;56232;53.384;-2.732;2023-11-18T02:51:41;11;11;
69123;PMS5003;56232;53.384;-2.732;2023-11-18T02:54:07;10;10;
69123;PMS5003;56232;53.384;-2.732;2023-11-18T02:56:32;9;9;
69123;PMS5003;56232;53.384;-2.732;2023-11-18T02:58:58;10;9;
69123;PMS5003;56232;53.384;-2.732;2023-11-18T03:01:24;9;9;
69123;PMS5003;56232;53.384;-2.732;2023-11-18T03:03:50;9;9;
69123;PMS5003;56232;53.384;-2.732;2023-11-18T03:06:15;8;8;
69123;PMS5003;56232;53.384;-2.732;2023-11-18T03:08:41;10;10;
69123;PMS5003;56232;53.384;-2.732;2023-11-18T03:11:06;17;12;
69123;PMS5003;56232;53.384;-2.732;2023-11-18T03:13:32;13;12;
69123;PMS5003;56232;53.384;-2.732;2023-11-18T03:15:58;12;12;
69123;PMS5003;56232;53.384;-2.732;2023-11-18T03:18:23;14;14;
69123;PMS5003;56232;53.384;-2.732;2023-11-18T03:20:49;12;12;
69123;PMS5003;56232;53.384;-2.732;2023-11-18T03:23:15;10;10;
69123;PMS5003;56232;53.384;-2.732;2023-11-18T03:25:41;11;10;
69123;PMS5003;56232;53.384;-2.732;2023-11-18T03:28:06;8;8;
69123;PMS5003;56232;53.384;-2.732;2023-11-18T03:30:32;9;9;
69123;PMS5003;56232;53.384;-2.732;2023-11-18T03:32:58;14;13;
69123;PMS5003;56232;53.384;-2.732;2023-11-18T03:35:23;11;11;
69123;PMS5003;56232;53.384;-2.732;2023-11-18T03:37:49;10;10;
69123;PMS5003;56232;53.384;-2.732;2023-11-18T03:40:15;7;7;
69123;PMS5003;56232;53.384;-2.732;2023-11-18T03:42:41;14;11;
69123;PMS5003;56232;53.384;-2.732;2023-11-18T03:45:06;9;9;
69123;PMS5003;56232;53.384;-2.732;2023-11-18T03:47:31;11;11;
69123;PMS5003;56232;53.384;-2.732;2023-11-18T03:49:57;11;11;
69123;PMS5003;56232;53.384;-2.732;2023-11-18T03:52:23;9;9;
69123;PMS5003;56232;53.384;-2.732;2023-11-18T03:54:49;11;11;
69123;PMS5003;56232;53.384;-2.732;2023-11-18T03:57:14;8;8;
69123;PMS5003;56232;53.384;-2.732;2023-11-18T03:59:40;9;9;
69123;PMS5003;56232;53.384;-2.732;2023-11-18T04:02:06;6;6;
69123;PMS5003;56232;53.384;-2.732;2023-11-18T04:04:31;8;7;
69123;PMS5003;56232;53.384;-2.732;2023-11-18T04:06:57;7;6;
69123;PMS5003;56232;53.384;-2.732;2023-11-18T04:09:23;5;5;
69123;PMS5003;56232;53.384;-2.732;2023-11-18T04:11:48;5;5;
69123;PMS5003;56232;53.384;-2.732;2023-11-18T04:14:14;4;4;
69123;PMS5003;56232;53.384;-2.732;2023-11-18T04:16:40;6;6;
69123;PMS5003;56232;53.384;-2.732;2023-11-18T04:19:05;5;5;
69123;PMS5003;56232;53.384;-2.732;2023-11-18T04:21:31;4;4;
69123;PMS5003;56232;53.384;-2.732;2023-11-18T04:23:57;3;3;
69123;PMS5003;56232;53.384;-2.732;2023-11-18T04:26:23;5;5;
69123;PMS5003;56232;53.384;-2.732;2023-11-18T04:28:48;4;4;
69123;PMS5003;56232;53.384;-2.732;2023-11-18T04:31:14;4;4;
69123;PMS5003;56232;53.384;-2.732;2023-11-18T04:33:39;2;2;
69123;PMS5003;56232;53.384;-2.732;2023-11-18T04:36:06;3;3;
69123;PMS5003;56232;53.384;-2.732;2023-11-18T04:38:31;2;2;
69123;PMS5003;56232;53.384;-2.732;2023-11-18T04:40:57;3;2;
69123;PMS5003;56232;53.384;-2.732;2023-11-18T04:43:22;2;2;
69123;PMS5003;56232;53.384;-2.732;2023-11-18T04:45:48;2;2;
69123;PMS5003;56232;53.384;-2.732;2023-11-18T04:48:14;3;3;
69123;PMS5003;56232;53.384;-2.732;2023-11-18T04:50:40;2;2;
69123;PMS5003;56232;53.384;-2.732;2023-11-18T04:53:05;3;3;
69123;PMS5003;56232;53.384;-2.732;2023-11-18T04:55:31;1;1;
69123;PMS5003;56232;53.384;-2.732;2023-11-18T04:57:56;2;2;
69123;PMS5003;56232;53.384;-2.732;2023-11-18T05:00:22;2;2;
69123;PMS5003;56232;53.384;-2.732;2023-11-18T05:02:48;1;1;
69123;PMS5003;56232;53.384;-2.732;2023-11-18T05:05:13;3;3;
69123;PMS5003;56232;53.384;-2.732;2023-11-18T05:07:39;2;2;
69123;PMS5003;56232;53.384;-2.732;2023-11-18T05:10:05;2;2;
69123;PMS5003;56232;53.384;-2.732;2023-11-18T05:12:31;2;2;
69123;PMS5003;56232;53.384;-2.732;2023-11-18T05:14:56;4;3;
69123;PMS5003;56232;53.384;-2.732;2023-11-18T05:17:22;1;1;
69123;PMS5003;56232;53.384;-2.732;2023-11-18T05:19:48;2;2;
69123;PMS5003;56232;53.384;-2.732;2023-11-18T05:22:13;3;2;
69123;PMS5003;56232;53.384;-2.732;2023-11-18T05:24:39;2;2;
69123;PMS5003;56232;53.384;-2.732;2023-11-18T05:27:05;2;2;
69123;PMS5003;56232;53.384;-2.732;2023-11-18T05:29:31;1;1;
69123;PMS5003;56232;53.384;-2.732;2023-11-18T05:31:56;1;1;
69123;PMS5003;56232;53.384;-2.732;2023-11-18T05:34:22;1;1;
69123;PMS5003;56232;53.384;-2.732;2023-11-18T05:36:47;2;2;
69123;PMS5003;56232;53.384;-2.732;2023-11-18T05:39:13;1;1;
69123;PMS5003;56232;53.384;-2.732;2023-11-18T05:41:39;1;1;
69123;PMS5003;56232;53.384;-2.732;2023-11-18T05:44:05;1;1;
69123;PMS5003;56232;53.384;-2.732;2023-11-18T05:46:30;0;0;
69123;PMS5003;56232;53.384;-2.732;2023-11-18T05:48:56;2;2;
69123;PMS5003;56232;53.384;-2.732;2023-11-18T05:51:22;1;1;
69123;PMS5003;56232;53.384;-2.732;2023-11-18T05:53:47;2;2;
69123;PMS5003;56232;53.384;-2.732;2023-11-18T05:56:13;0;0;
69123;PMS5003;56232;53.384;-2.732;2023-11-18T05:58:38;1;1;
69123;PMS5003;56232;53.384;-2.732;2023-11-18T06:01:04;2;2;
69123;PMS5003;56232;53.384;-2.732;2023-11-18T06:03:30;2;2;
69123;PMS5003;56232;53.384;-2.732;2023-11-18T06:05:55;1;1;
69123;PMS5003;56232;53.384;-2.732;2023-11-18T06:08:21;1;1;
69123;PMS5003;56232;53.384;-2.732;2023-11-18T06:10:47;3;3;
69123;PMS5003;56232;53.384;-2.732;2023-11-18T06:13:12;2;2;
69123;PMS5003;56232;53.384;-2.732;2023-11-18T06:15:38;2;2;
69123;PMS5003;56232;53.384;-2.732;2023-11-18T06:18:04;2;2;
69123;PMS5003;56232;53.384;-2.732;2023-11-18T06:20:30;1;1;
69123;PMS5003;56232;53.384;-2.732;2023-11-18T06:22:55;3;3;
69123;PMS5003;56232;53.384;-2.732;2023-11-18T06:25:21;1;1;
69123;PMS5003;56232;53.384;-2.732;2023-11-18T06:27:46;2;2;
69123;PMS5003;56232;53.384;-2.732;2023-11-18T06:30:12;1;1;
69123;PMS5003;56232;53.384;-2.732;2023-11-18T06:32:38;2;2;
69123;PMS5003;56232;53.384;-2.732;2023-11-18T06:35:04;1;1;
69123;PMS5003;56232;53.384;-2.732;2023-11-18T06:37:31;2;2;
69123;PMS5003;56232;53.384;-2.732;2023-11-18T06:39:55;3;3;
69123;PMS5003;56232;53.384;-2.732;2023-11-18T06:42:20;2;2;
69123;PMS5003;56232;53.384;-2.732;2023-11-18T06:44:46;2;2;
69123;PMS5003;56232;53.384;-2.732;2023-11-18T06:47:12;2;2;
69123;PMS5003;56232;53.384;-2.732;2023-11-18T06:49:38;3;2;
69123;PMS5003;56232;53.384;-2.732;2023-11-18T06:52:03;3;3;
69123;PMS5003;56232;53.384;-2.732;2023-11-18T06:54:29;2;2;
69123;PMS5003;56232;53.384;-2.732;2023-11-18T06:56:54;2;2;
69123;PMS5003;56232;53.384;-2.732;2023-11-18T06:59:20;2;2;
69123;PMS5003;56232;53.384;-2.732;2023-11-18T07:01:46;2;2;
69123;PMS5003;56232;53.384;-2.732;2023-11-18T07:04:11;3;3;
69123;PMS5003;56232;53.384;-2.732;2023-11-18T07:06:37;2;2;
69123;PMS5003;56232;53.384;-2.732;2023-11-18T07:09:03;3;3;
69123;PMS5003;56232;53.384;-2.732;2023-11-18T07:11:28;3;3;
69123;PMS5003;56232;53.384;-2.732;2023-11-18T07:13:54;2;2;
69123;PMS5003;56232;53.384;-2.732;2023-11-18T07:16:20;1;1;
69123;PMS5003;56232;53.384;-2.732;2023-11-18T07:18:45;2;2;
69123;PMS5003;56232;53.384;-2.732;2023-11-18T07:21:11;3;3;
69123;PMS5003;56232;53.384;-2.732;2023-11-18T07:23:36;2;2;
69123;PMS5003;56232;53.384;-2.732;2023-11-18T07:26:02;2;2;
69123;PMS5003;56232;53.384;-2.732;2023-11-18T07:28:28;1;1;
69123;PMS5003;56232;53.384;-2.732;2023-11-18T07:30:53;2;2;
69123;PMS5003;56232;53.384;-2.732;2023-11-18T07:33:19;3;3;
69123;PMS5003;56232;53.384;-2.732;2023-11-18T07:35:45;2;2;
69123;PMS5003;56232;53.384;-2.732;2023-11-18T07:38:10;2;2;
69123;PMS5003;56232;53.384;-2.732;2023-11-18T07:40:36;2;2;
69123;PMS5003;56232;53.384;-2.732;2023-11-18T07:43:02;3;3;
69123;PMS5003;56232;53.384;-2.732;2023-11-18T07:45:28;3;3;
69123;PMS5003;56232;53.384;-2.732;2023-11-18T07:47:53;3;3;
69123;PMS5003;56232;53.384;-2.732;2023-11-18T07:50:19;3;3;
69123;PMS5003;56232;53.384;-2.732;2023-11-18T07:52:45;3;3;
69123;PMS5003;56232;53.384;-2.732;2023-11-18T07:55:10;2;2;
69123;PMS5003;56232;53.384;-2.732;2023-11-18T07:57:36;2;2;
69123;PMS5003;56232;53.384;-2.732;2023-11-18T08:00:02;3;3;
69123;PMS5003;56232;53.384;-2.732;2023-11-18T08:02:27;4;4;
69123;PMS5003;56232;53.384;-2.732;2023-11-18T08:04:53;3;3;
69123;PMS5003;56232;53.384;-2.732;2023-11-18T08:07:18;2;2;
69123;PMS5003;56232;53.384;-2.732;2023-11-18T08:09:44;3;3;
69123;PMS5003;56232;53.384;-2.732;2023-11-18T08:12:10;3;3;
69123;PMS5003;56232;53.384;-2.732;2023-11-18T08:14:35;4;4;
69123;PMS5003;56232;53.384;-2.732;2023-11-18T08:17:01;3;3;
69123;PMS5003;56232;53.384;-2.732;2023-11-18T08:19:27;4;4;
69123;PMS5003;56232;53.384;-2.732;2023-11-18T08:21:52;3;3;
69123;PMS5003;56232;53.384;-2.732;2023-11-18T08:24:18;3;3;
69123;PMS5003;56232;53.384;-2.732;2023-11-18T08:26:45;2;2;
69123;PMS5003;56232;53.384;-2.732;2023-11-18T08:29:09;3;3;
69123;PMS5003;56232;53.384;-2.732;2023-11-18T08:31:35;3;3;
69123;PMS5003;56232;53.384;-2.732;2023-11-18T08:34:00;3;3;
69123;PMS5003;56232;53.384;-2.732;2023-11-18T08:36:26;1;1;
69123;PMS5003;56232;53.384;-2.732;2023-11-18T08:38:52;3;3;
69123;PMS5003;56232;53.384;-2.732;2023-11-18T08:41:17;4;4;
69123;PMS5003;56232;53.384;-2.732;2023-11-18T08:43:43;3;3;
69123;PMS5003;56232;53.384;-2.732;2023-11-18T08:46:09;4;4;
69123;PMS5003;56232;53.384;-2.732;2023-11-18T08:48:34;4;4;
69123;PMS5003;56232;53.384;-2.732;2023-11-18T08:51:00;5;4;
69123;PMS5003;56232;53.384;-2.732;2023-11-18T08:53:26;3;3;
69123;PMS5003;56232;53.384;-2.732;2023-11-18T08:55:51;2;2;
69123;PMS5003;56232;53.384;-2.732;2023-11-18T08:58:17;3;3;
69123;PMS5003;56232;53.384;-2.732;2023-11-18T09:00:43;3;3;
69123;PMS5003;56232;53.384;-2.732;2023-11-18T09:03:08;3;3;
69123;PMS5003;56232;53.384;-2.732;2023-11-18T09:05:34;3;3;
69123;PMS5003;56232;53.384;-2.732;2023-11-18T09:08:00;4;4;
69123;PMS5003;56232;53.384;-2.732;2023-11-18T09:10:25;4;4;
69123;PMS5003;56232;53.384;-2.732;2023-11-18T09:12:51;4;4;
69123;PMS5003;56232;53.384;-2.732;2023-11-18T09:15:17;4;4;
69123;PMS5003;56232;53.384;-2.732;2023-11-18T09:17:42;4;3;
69123;PMS5003;56232;53.384;-2.732;2023-11-18T09:20:08;3;3;
69123;PMS5003;56232;53.384;-2.732;2023-11-18T09:22:33;4;4;
69123;PMS5003;56232;53.384;-2.732;2023-11-18T09:24:59;4;4;
69123;PMS5003;56232;53.384;-2.732;2023-11-18T09:27:25;3;3;
69123;PMS5003;56232;53.384;-2.732;2023-11-18T09:29:50;3;3;
69123;PMS5003;56232;53.384;-2.732;2023-11-18T09:32:16;2;2;
69123;PMS5003;56232;53.384;-2.732;2023-11-18T09:34:42;5;4;
69123;PMS5003;56232;53.384;-2.732;2023-11-18T09:37:07;3;3;
69123;PMS5003;56232;53.384;-2.732;2023-11-18T09:39:33;4;4;
69123;PMS5003;56232;53.384;-2.732;2023-11-18T09:41:59;4;4;
69123;PMS5003;56232;53.384;-2.732;2023-11-18T09:44:24;4;4;
69123;PMS5003;56232;53.384;-2.732;2023-11-18T09:46:50;5;4;
69123;PMS5003;56232;53.384;-2.732;2023-11-18T09:49:17;4;4;
69123;PMS5003;56232;53.384;-2.732;2023-11-18T09:51:42;2;2;
69123;PMS5003;56232;53.384;-2.732;2023-11-18T09:54:09;2;2;
69123;PMS5003;56232;53.384;-2.732;2023-11-18T09:56:35;6;5;
69123;PMS5003;56232;53.384;-2.732;2023-11-18T09:59:01;6;5;
69123;PMS5003;56232;53.384;-2.732;2023-11-18T10:01:23;5;5;
69123;PMS5003;56232;53.384;-2.732;2023-11-18T10:03:49;5;5;
69123;PMS5003;56232;53.384;-2.732;2023-11-18T10:06:20;4;4;
69123;PMS5003;56232;53.384;-2.732;2023-11-18T10:08:40;4;4;
69123;PMS5003;56232;53.384;-2.732;2023-11-18T10:11:06;6;5;
69123;PMS5003;56232;53.384;-2.732;2023-11-18T10:13:32;5;4;
69123;PMS5003;56232;53.384;-2.732;2023-11-18T10:15:57;3;3;
69123;PMS5003;56232;53.384;-2.732;2023-11-18T10:18:22;4;4;
69123;PMS5003;56232;53.384;-2.732;2023-11-18T10:20:48;1;1;
69123;PMS5003;56232;53.384;-2.732;2023-11-18T10:23:14;3;3;
69123;PMS5003;56232;53.384;-2.732;2023-11-18T10:25:41;4;2;
69123;PMS5003;56232;53.384;-2.732;2023-11-18T10:28:05;0;0;
69123;PMS5003;56232;53.384;-2.732;2023-11-18T10:30:31;1;1;
69123;PMS5003;56232;53.384;-2.732;2023-11-18T10:32:56;2;2;
69123;PMS5003;56232;53.384;-2.732;2023-11-18T10:35:21;2;1;
69123;PMS5003;56232;53.384;-2.732;2023-11-18T10:37:47;1;1;
69123;PMS5003;56232;53.384;-2.732;2023-11-18T10:40:13;1;1;
69123;PMS5003;56232;53.384;-2.732;2023-11-18T10:42:38;0;0;
69123;PMS5003;56232;53.384;-2.732;2023-11-18T10:45:04;3;1;
69123;PMS5003;56232;53.384;-2.732;2023-11-18T10:47:32;2;1;
69123;PMS5003;56232;53.384;-2.732;2023-11-18T10:49:55;1;1;
69123;PMS5003;56232;53.384;-2.732;2023-11-18T10:52:20;1;1;
69123;PMS5003;56232;53.384;-2.732;2023-11-18T10:54:50;2;2;
69123;PMS5003;56232;53.384;-2.732;2023-11-18T10:57:11;2;1;
69123;PMS5003;56232;53.384;-2.732;2023-11-18T10:59:39;3;2;
69123;PMS5003;56232;53.384;-2.732;2023-11-18T11:04:29;4;2;
69123;PMS5003;56232;53.384;-2.732;2023-11-18T11:06:54;1;1;
69123;PMS5003;56232;53.384;-2.732;2023-11-18T11:09:19;2;2;
69123;PMS5003;56232;53.384;-2.732;2023-11-18T11:11:46;4;4;
69123;PMS5003;56232;53.384;-2.732;2023-11-18T11:14:10;6;6;
69123;PMS5003;56232;53.384;-2.732;2023-11-18T11:16:38;3;3;
69123;PMS5003;56232;53.384;-2.732;2023-11-18T11:19:02;3;2;
69123;PMS5003;56232;53.384;-2.732;2023-11-18T11:21:27;3;3;
69123;PMS5003;56232;53.384;-2.732;2023-11-18T11:23:53;4;2;
69123;PMS5003;56232;53.384;-2.732;2023-11-18T11:26:22;3;2;
69123;PMS5003;56232;53.384;-2.732;2023-11-18T11:28:45;2;2;
69123;PMS5003;56232;53.384;-2.732;2023-11-18T11:31:12;2;2;
69123;PMS5003;56232;53.384;-2.732;2023-11-18T11:33:36;2;1;
69123;PMS5003;56232;53.384;-2.732;2023-11-18T11:36:00;1;1;
69123;PMS5003;56232;53.384;-2.732;2023-11-18T11:38:26;1;1;
69123;PMS5003;56232;53.384;-2.732;2023-11-18T11:40:52;2;2;
69123;PMS5003;56232;53.384;-2.732;2023-11-18T11:43:17;4;3;
69123;PMS5003;56232;53.384;-2.732;2023-11-18T11:45:43;2;2;
69123;PMS5003;56232;53.384;-2.732;2023-11-18T11:48:08;1;1;
69123;PMS5003;56232;53.384;-2.732;2023-11-18T11:50:34;3;3;
69123;PMS5003;56232;53.384;-2.732;2023-11-18T11:53:04;2;2;
69123;PMS5003;56232;53.384;-2.732;2023-11-18T11:55:29;2;1;
69123;PMS5003;56232;53.384;-2.732;2023-11-18T11:57:51;1;1;
69123;PMS5003;56232;53.384;-2.732;2023-11-18T12:00:16;4;3;
69123;PMS5003;56232;53.384;-2.732;2023-11-18T12:05:07;2;1;
69123;PMS5003;56232;53.384;-2.732;2023-11-18T12:07:33;6;4;
69123;PMS5003;56232;53.384;-2.732;2023-11-18T12:09:58;3;2;
69123;PMS5003;56232;53.384;-2.732;2023-11-18T12:12:24;3;3;
69123;PMS5003;56232;53.384;-2.732;2023-11-18T12:14:50;1;1;
69123;PMS5003;56232;53.384;-2.732;2023-11-18T12:17:15;2;1;
69123;PMS5003;56232;53.384;-2.732;2023-11-18T12:19:41;4;3;
69123;PMS5003;56232;53.384;-2.732;2023-11-18T12:22:06;4;4;
69123;PMS5003;56232;53.384;-2.732;2023-11-18T12:24:32;3;2;
69123;PMS5003;56232;53.384;-2.732;2023-11-18T12:26:57;1;1;
69123;PMS5003;56232;53.384;-2.732;2023-11-18T12:31:48;3;3;
69123;PMS5003;56232;53.384;-2.732;2023-11-18T12:34:14;1;0;
69123;PMS5003;56232;53.384;-2.732;2023-11-18T12:39:12;3;2;
69123;PMS5003;56232;53.384;-2.732;2023-11-18T12:41:33;1;0;
69123;PMS5003;56232;53.384;-2.732;2023-11-18T12:43:59;3;2;
69123;PMS5003;56232;53.384;-2.732;2023-11-18T12:46:29;5;4;
69123;PMS5003;56232;53.384;-2.732;2023-11-18T12:48:47;2;1;
69123;PMS5003;56232;53.384;-2.732;2023-11-18T12:51:13;3;3;
69123;PMS5003;56232;53.384;-2.732;2023-11-18T12:53:38;2;2;
69123;PMS5003;56232;53.384;-2.732;2023-11-18T12:56:04;3;2;
69123;PMS5003;56232;53.384;-2.732;2023-11-18T12:58:30;2;2;
69123;PMS5003;56232;53.384;-2.732;2023-11-18T13:00:55;2;2;
69123;PMS5003;56232;53.384;-2.732;2023-11-18T13:03:20;5;3;
69123;PMS5003;56232;53.384;-2.732;2023-11-18T13:05:46;5;4;
69123;PMS5003;56232;53.384;-2.732;2023-11-18T13:08:12;3;3;
69123;PMS5003;56232;53.384;-2.732;2023-11-18T13:10:37;4;4;
69123;PMS5003;56232;53.384;-2.732;2023-11-18T13:13:03;3;2;
69123;PMS5003;56232;53.384;-2.732;2023-11-18T13:15:28;10;6;
69123;PMS5003;56232;53.384;-2.732;2023-11-18T13:17:58;3;2;
69123;PMS5003;56232;53.384;-2.732;2023-11-18T13:20:19;3;2;
69123;PMS5003;56232;53.384;-2.732;2023-11-18T13:22:44;2;2;
69123;PMS5003;56232;53.384;-2.732;2023-11-18T13:25:10;5;5;
69123;PMS5003;56232;53.384;-2.732;2023-11-18T13:27:36;6;3;
69123;PMS5003;56232;53.384;-2.732;2023-11-18T13:30:07;4;4;
69123;PMS5003;56232;53.384;-2.732;2023-11-18T13:32:27;3;2;
69123;PMS5003;56232;53.384;-2.732;2023-11-18T13:34:52;3;2;
69123;PMS5003;56232;53.384;-2.732;2023-11-18T13:37:18;6;5;
69123;PMS5003;56232;53.384;-2.732;2023-11-18T13:39:43;5;2;
69123;PMS5003;56232;53.384;-2.732;2023-11-18T13:44:35;3;2;
69123;PMS5003;56232;53.384;-2.732;2023-11-18T13:47:00;4;2;
69123;PMS5003;56232;53.384;-2.732;2023-11-18T13:49:27;2;1;
69123;PMS5003;56232;53.384;-2.732;2023-11-18T13:51:51;1;1;
69123;PMS5003;56232;53.384;-2.732;2023-11-18T13:54:16;5;3;
69123;PMS5003;56232;53.384;-2.732;2023-11-18T13:56:42;4;4;
69123;PMS5003;56232;53.384;-2.732;2023-11-18T13:59:07;5;4;
69123;PMS5003;56232;53.384;-2.732;2023-11-18T14:01:33;5;4;
69123;PMS5003;56232;53.384;-2.732;2023-11-18T14:03:59;2;2;
69123;PMS5003;56232;53.384;-2.732;2023-11-18T14:06:24;3;2;
69123;PMS5003;56232;53.384;-2.732;2023-11-18T14:08:50;3;3;
69123;PMS5003;56232;53.384;-2.732;2023-11-18T14:11:15;3;2;
69123;PMS5003;56232;53.384;-2.732;2023-11-18T14:13:41;9;5;
69123;PMS5003;56232;53.384;-2.732;2023-11-18T14:16:07;3;3;
69123;PMS5003;56232;53.384;-2.732;2023-11-18T14:18:32;4;3;
69123;PMS5003;56232;53.384;-2.732;2023-11-18T14:20:57;4;4;
69123;PMS5003;56232;53.384;-2.732;2023-11-18T14:23:23;6;4;
69123;PMS5003;56232;53.384;-2.732;2023-11-18T14:25:49;6;5;
69123;PMS5003;56232;53.384;-2.732;2023-11-18T14:28:14;4;4;
69123;PMS5003;56232;53.384;-2.732;2023-11-18T14:30:40;5;5;
69123;PMS5003;56232;53.384;-2.732;2023-11-18T14:33:05;6;4;
69123;PMS5003;56232;53.384;-2.732;2023-11-18T14:35:31;6;4;
69123;PMS5003;56232;53.384;-2.732;2023-11-18T14:37:56;4;3;
69123;PMS5003;56232;53.384;-2.732;2023-11-18T14:40:22;4;3;
69123;PMS5003;56232;53.384;-2.732;2023-11-18T14:42:47;4;3;
69123;PMS5003;56232;53.384;-2.732;2023-11-18T14:45:13;3;3;
69123;PMS5003;56232;53.384;-2.732;2023-11-18T14:47:38;4;4;
69123;PMS5003;56232;53.384;-2.732;2023-11-18T14:50:04;4;3;
69123;PMS5003;56232;53.384;-2.732;2023-11-18T14:52:29;4;4;
69123;PMS5003;56232;53.384;-2.732;2023-11-18T14:54:55;5;4;
69123;PMS5003;56232;53.384;-2.732;2023-11-18T14:57:21;5;3;
69123;PMS5003;56232;53.384;-2.732;2023-11-18T14:59:46;6;4;
69123;PMS5003;56232;53.384;-2.732;2023-11-18T15:02:12;5;3;
69123;PMS5003;56232;53.384;-2.732;2023-11-18T15:04:37;7;4;
69123;PMS5003;56232;53.384;-2.732;2023-11-18T15:07:03;8;6;
69123;PMS5003;56232;53.384;-2.732;2023-11-18T15:09:28;8;4;
69123;PMS5003;56232;53.384;-2.732;2023-11-18T15:11:55;5;3;
69123;PMS5003;56232;53.384;-2.732;2023-11-18T15:14:19;7;7;
69123;PMS5003;56232;53.384;-2.732;2023-11-18T15:16:45;7;5;
69123;PMS5003;56232;53.384;-2.732;2023-11-18T15:19:11;6;4;
69123;PMS5003;56232;53.384;-2.732;2023-11-18T15:21:36;6;4;
69123;PMS5003;56232;53.384;-2.732;2023-11-18T15:24:02;4;3;
69123;PMS5003;56232;53.384;-2.732;2023-11-18T15:26:27;9;6;
69123;PMS5003;56232;53.384;-2.732;2023-11-18T15:28:53;7;4;
69123;PMS5003;56232;53.384;-2.732;2023-11-18T15:31:19;4;3;
69123;PMS5003;56232;53.384;-2.732;2023-11-18T15:33:44;7;3;
69123;PMS5003;56232;53.384;-2.732;2023-11-18T15:36:10;8;6;
69123;PMS5003;56232;53.384;-2.732;2023-11-18T15:38:35;6;6;
69123;PMS5003;56232;53.384;-2.732;2023-11-18T15:41:00;7;5;
69123;PMS5003;56232;53.384;-2.732;2023-11-18T15:43:26;13;10;
69123;PMS5003;56232;53.384;-2.732;2023-11-18T15:45:51;5;4;
69123;PMS5003;56232;53.384;-2.732;2023-11-18T15:48:17;10;4;
69123;PMS5003;56232;53.384;-2.732;2023-11-18T15:50:42;5;4;
69123;PMS5003;56232;53.384;-2.732;2023-11-18T15:53:08;8;8;
69123;PMS5003;56232;53.384;-2.732;2023-11-18T15:55:33;13;8;
69123;PMS5003;56232;53.384;-2.732;2023-11-18T15:57:58;8;6;
69123;PMS5003;56232;53.384;-2.732;2023-11-18T16:00:25;9;7;
69123;PMS5003;56232;53.384;-2.732;2023-11-18T16:02:50;5;3;
69123;PMS5003;56232;53.384;-2.732;2023-11-18T16:05:16;11;8;
69123;PMS5003;56232;53.384;-2.732;2023-11-18T16:07:41;11;7;
69123;PMS5003;56232;53.384;-2.732;2023-11-18T16:10:06;7;4;
69123;PMS5003;56232;53.384;-2.732;2023-11-18T16:12:32;10;8;
69123;PMS5003;56232;53.384;-2.732;2023-11-18T16:14:57;9;6;
69123;PMS5003;56232;53.384;-2.732;2023-11-18T16:17:23;7;6;
69123;PMS5003;56232;53.384;-2.732;2023-11-18T16:19:48;10;8;
69123;PMS5003;56232;53.384;-2.732;2023-11-18T16:22:14;7;6;
69123;PMS5003;56232;53.384;-2.732;2023-11-18T16:24:39;8;6;
69123;PMS5003;56232;53.384;-2.732;2023-11-18T16:27:05;12;8;
69123;PMS5003;56232;53.384;-2.732;2023-11-18T16:29:31;19;11;
69123;PMS5003;56232;53.384;-2.732;2023-11-18T16:31:56;8;6;